ADDS METAR Data INFO
IDs: Format: Raw Decoded Include TAF

Data at: 1442 UTC 22 Feb 2018

KEVV 221354Z 05010KT 10SM OVC006 06/06 A3036 RMK AO2 RAB07E19 SLP284 P0000 T00610056 $
KEVV 221254Z 02010KT 6SM BR BKN006 OVC017 06/06 A3035 RMK AO2 RAB04E50 SLP278 P0003 T00560056 $
KEVV 221239Z 01010KT 4SM -RA BR BKN006 BKN013 OVC027 06/06 A3034 RMK AO2 RAB04 P0003 T00560056 $
KEVV 221221Z 35010G20KT 2SM -RA BR OVC008 06/06 A3034 RMK AO2 RAB04 P0002 T00610056 $
KEVV 221154Z 30010G18KT 10SM OVC008 07/06 A3035 RMK AO2 SLP280 60047 70115 T00670061 10067 20044 53015 $
KEVV 221054Z AUTO 13005KT 10SM OVC007 07/06 A3026 RMK AO2 RAE0959 SLP248 P0000 T00670061 $
KEVV 221014Z AUTO 09014G21KT 10SM BKN008 OVC060 06/06 A3020 RMK AO2 RAE0959 PRESFR P0000 T00610056 $
KEVV 221001Z AUTO 09010KT 10SM SCT008 OVC055 06/06 A3025 RMK AO2 RAE0959 PRESFR P0000 T00560056 $
KEVV 220954Z AUTO 09010KT 10SM -RA BKN008 OVC060 06/06 A3027 RMK AO2 SLP252 P0003 T00560056 $
KEVV 220913Z AUTO 05010KT 9SM RA BKN008 BKN041 OVC080 06/05 A3030 RMK AO2 P0002 T00560050 $
KEVV 220854Z AUTO 06008KT 9SM RA BKN010 OVC014 05/05 A3031 RMK AO2 SLP265 P0009 60044 T00500050 56028 $
KEVV 220839Z AUTO 06010KT 7SM RA FEW008 BKN012 OVC075 05/05 A3031 RMK AO2 P0007 T00500050 $
KEVV 220805Z AUTO 03010KT 7SM RA FEW008 BKN030 OVC075 05/05 A3033 RMK AO2 P0001 T00500050 $
KEVV 220754Z AUTO 03009KT 6SM RA BR SCT008 BKN014 OVC019 05/05 A3033 RMK AO2 PRESFR SLP273 P0020 T00500050 $
KEVV 220752Z AUTO 03008KT 6SM RA BR SCT008 OVC015 05/05 A3033 RMK AO2 PRESFR P0020 $
KEVV 220738Z AUTO 02005KT 5SM +RA BR BKN009 OVC013 05/05 A3035 RMK AO2 P0015 T00500050 $
KEVV 220727Z AUTO 02008KT 3SM +RA BR BKN010 OVC013 05/05 A3035 RMK AO2 P0009 T00500050 $
KEVV 220654Z AUTO 03011KT 5SM +RA BR BKN007 BKN011 OVC025 04/04 A3035 RMK AO2 SLP278 P0015 T00440044 $
KEVV 220554Z AUTO 03008KT 5SM RA BR OVC008 04/04 A3039 RMK AO2 SLP294 P0008 60031 T00440044 10056 20044 402170033 56019 $
KEVV 220454Z 03012KT 5SM RA BR BKN008 BKN018 OVC035 04/04 A3041 RMK AO2 SLP300 P0008 T00440044
KEVV 220354Z 02010KT 8SM RA BKN008 BKN012 OVC017 05/04 A3042 RMK AO2 SLP304 P0004 T00500044
KEVV 220023Z 03009KT 8SM -RA SCT009 BKN035 OVC080 05/04 A3045 RMK AO2 P0002 T00500044
KEVV 212354Z 04008KT 9SM -RA BKN009 BKN050 OVC085 04/04 A3046 RMK AO2 SLP317 P0002 60021 T00440044 10050 20044 53008
KEVV 212254Z 01008KT 10SM -RA BKN009 OVC055 04/04 A3044 RMK AO2 SLP311 P0005 T00440044
KEVV 212154Z 36010KT 8SM RA OVC009 04/04 A3046 RMK AO2 SLP315 P0006 T00440044
KEVV 212054Z 33008KT 8SM RA OVC008 05/04 A3044 RMK AO2 SLP309 P0003 60008 T00500044 55003
KEVV 211954Z 36005KT 10SM -RA OVC009 05/04 A3042 RMK AO2 CIG 007V011 SLP304 P0003 T00500044
KEVV 211854Z 34009KT 10SM -RA OVC009 05/04 A3043 RMK AO2 SLP306 P0002 T00500044
KEVV 211754Z 36007KT 10SM -RA OVC009 04/04 A3045 RMK AO2 SLP310 P0001 60016 T00440039 10056 20033 50001
KEVV 211724Z 36006KT 10SM -RA OVC009 04/04 A3046 RMK AO2 CIG 007V014 P0000 T00440039
KEVV 211654Z 34009KT 10SM -RA OVC011 04/03 A3047 RMK AO2 SLP317 P0001 T00390033
KEVV 211637Z 36007KT 10SM -RA SCT011 OVC019 04/03 A3047 RMK AO2 P0001 T00440033
KEVV 211554Z 35006KT 10SM -RA BKN014 OVC019 04/03 A3045 RMK AO2 SLP312 P0003 T00390028
KEVV 211454Z 35010KT 6SM RA BR OVC010 03/03 A3044 RMK AO2 CIG 007V013 SLP309 P0008 60011 T00330028 53043
KEVV 211354Z 34008KT 10SM -RA OVC011 04/03 A3041 RMK AO2 SLP297 P0003 T00390033
KEVV 211344Z 32009KT 10SM RA BKN011 OVC017 04/03 A3040 RMK AO2 PRESRR P0003 T00390033
KEVV 211337Z 34010G16KT 10SM -RA SCT011 OVC015 04/03 A3039 RMK AO2 PRESRR P0002 T00390033
KEVV 211333Z 35009G16KT 10SM -RA BKN009 OVC016 04/03 A3037 RMK AO2 CIG 008V013 P0002 T00390033
KEVV 211254Z 35009G18KT 10SM -RA OVC010 04/03 A3035 RMK AO2 SLP277 P0000 T00440033
KEVV 211243Z 33009G18KT 10SM -RA OVC010 04/04 A3035 RMK AO2 CIG 007V013 P0000 T00440039
KEVV 210754Z AUTO 31011G18KT 5SM +RA BR FEW038 OVC049 09/09 A3018 RMK AO2 PK WND 30028/0701 WSHFT 0641 RAB0656 SLP218 P0014 T00890089
KEVV 210712Z AUTO 30014G28KT 10SM -RA FEW009 OVC032 11/11 A3015 RMK AO2 PK WND 30028/0701 WSHFT 0641 RAB0656 P0000 T01110106
KEVV 210701Z AUTO 32015G28KT 10SM -RA FEW011 BKN033 OVC070 13/12 A3013 RMK AO2 PK WND 30028/0701 WSHFT 0641 RAB0656 P0000 T01280117
KEVV 210654Z AUTO 31013G34KT 10SM FEW013 BKN038 OVC070 14/12 A3011 RMK AO2 PK WND 30034/0648 WSHFT 0637 PRESRR SLP194 T01390117
KEVV 210651Z AUTO 31021G34KT 10SM FEW013 BKN037 OVC085 14/12 A3010 RMK AO2 PK WND 30034/0648 WSHFT 0637 PRESRR
KEVV 210554Z AUTO 18013G20KT 10SM BKN110 21/16 A3003 RMK AO2 SLP165 T02110156 10217 20206 402440183 56009